Lacey, Iowa
Current Conditions -  °F | °C
As of 7:15 AM on Sunday 21 Dec 2014 (Local Time) from KPEA Reporting Station
Overcast Overcast  
Wind Chill: 30°   Ceiling: 1400
Heat Index: 38°   Visibility: 7mi
Dew Point: 35°   Wind: 12mph
Humidity: 90%   Direction: 180°S
Pressure: 30.04"   Gusts: NA
Location:  41.465°N, 92.7016°W
Report Text: KPEA 211315Z AUTO 18010KT 7SM OVC014 03/02 A3004 RMK AO2 T00330018
Loading
Personal Weather Stations






























Interactive Weather Map New forecast layout! Learn more

10-Day Weather Forecast

Advertisements
Track Severe Weather on mobile